createdAt,value
2023-06-17T15:24:45.569Z,100843.50
2023-06-17T15:27:31.102Z,100848.41
2023-06-17T15:30:16.496Z,100843.66
2023-06-17T15:33:04.728Z,100840.97
2023-06-17T15:35:50.150Z,100845.53
2023-06-17T15:38:35.596Z,100831.97
2023-06-17T15:41:21.652Z,100840.91
2023-06-17T15:44:07.052Z,100824.50
2023-06-17T15:46:52.501Z,100818.38
2023-06-17T15:49:41.423Z,100833.69
2023-06-17T15:52:28.662Z,100826.28
2023-06-17T15:55:14.161Z,100819.09
2023-06-17T15:57:59.366Z,100821.56
2023-06-17T16:00:45.246Z,100821.13
2023-06-17T16:03:31.938Z,100819.09
2023-06-17T16:06:17.512Z,100804.63
2023-06-17T16:09:02.903Z,100807.19
2023-06-17T16:11:48.103Z,100798.31
2023-06-17T16:14:34.072Z,100791.81
2023-06-17T16:17:19.728Z,100798.91
2023-06-17T16:20:05.896Z,100794.50
2023-06-17T16:22:51.769Z,100778.19
2023-06-17T16:25:49.844Z,100784.94
2023-06-17T16:28:41.013Z,100791.88
2023-06-17T16:31:26.369Z,100805.69
2023-06-17T16:34:13.030Z,100799.50
2023-06-17T16:36:58.780Z,100804.06
2023-06-17T16:39:44.233Z,100799.09
2023-06-17T16:42:34.047Z,100787.22
2023-06-17T16:45:19.794Z,100792.41
2023-06-17T16:48:07.316Z,100793.88
2023-06-17T16:50:54.596Z,100792.69
2023-06-17T16:53:40.089Z,100784.28
2023-06-17T16:56:25.648Z,100771.69
2023-06-17T16:59:12.015Z,100780.72
2023-06-17T17:01:57.905Z,100771.59
2023-06-17T17:04:45.537Z,100776.16
2023-06-17T17:07:34.217Z,100768.97
2023-06-17T17:10:24.444Z,100764.06
2023-06-17T17:13:10.100Z,100759.03
2023-06-17T17:15:56.212Z,100753.69
2023-06-17T17:18:41.841Z,100759.38
2023-06-17T17:21:27.988Z,100753.72
2023-06-17T17:24:13.661Z,100752.06
2023-06-17T17:26:59.536Z,100770.97
2023-06-17T17:29:44.942Z,100764.53
2023-06-17T17:32:30.364Z,100764.66
2023-06-17T17:35:16.089Z,100772.09
2023-06-17T17:38:01.597Z,100779.50
2023-06-17T17:40:47.043Z,100771.63
2023-06-17T17:43:32.376Z,100760.91
2023-06-17T17:46:17.742Z,100761.72
2023-06-17T17:49:03.648Z,100768.75
2023-06-17T17:51:49.141Z,100774.44
2023-06-17T17:54:34.456Z,100776.78
2023-06-17T17:57:19.861Z,100785.97
2023-06-17T18:00:05.910Z,100790.09
2023-06-17T18:02:57.075Z,100800.38
2023-06-17T18:05:42.928Z,100803.41
2023-06-17T18:08:28.217Z,100812.38
2023-06-17T18:11:13.614Z,100812.56
2023-06-17T18:13:59.510Z,100811.75
2023-06-17T18:16:45.035Z,100820.66
2023-06-17T18:19:30.421Z,100819.03
2023-06-17T18:22:16.055Z,100819.19
2023-06-17T18:25:01.887Z,100829.75
2023-06-17T18:27:47.341Z,100832.38
2023-06-17T18:30:32.802Z,100827.25
2023-06-17T18:33:18.283Z,100826.44
2023-06-17T18:36:03.963Z,100831.75
2023-06-17T18:38:49.708Z,100839.00
2023-06-17T18:41:35.073Z,100838.50
2023-06-17T18:44:20.615Z,100843.97
2023-06-17T18:47:06.386Z,100844.94
2023-06-17T18:49:51.833Z,100846.06
2023-06-17T18:52:37.261Z,100842.66
2023-06-17T18:55:22.497Z,100844.47
2023-06-17T18:58:07.999Z,100838.34
2023-06-17T19:00:53.442Z,100840.09
2023-06-17T19:03:38.886Z,100847.19
2023-06-17T19:06:24.683Z,100841.22
2023-06-17T19:09:09.936Z,100850.09
2023-06-17T19:12:00.615Z,100846.56
2023-06-17T19:14:47.094Z,100846.56
2023-06-17T19:17:32.765Z,100849.25
2023-06-17T19:20:18.391Z,100851.06
2023-06-17T19:23:03.947Z,100849.41
2023-06-17T19:25:49.269Z,100842.53
2023-06-17T19:28:35.248Z,100858.47
2023-06-17T19:31:22.436Z,100856.00
2023-06-17T19:34:07.919Z,100849.09
2023-06-17T19:36:53.492Z,100858.88
2023-06-17T19:39:39.087Z,100853.81
2023-06-17T19:42:24.616Z,100853.03
2023-06-17T19:45:10.967Z,100854.03
2023-06-17T19:48:02.377Z,100862.84
2023-06-17T19:50:47.833Z,100860.28
2023-06-17T19:53:33.277Z,100855.94
2023-06-17T19:56:19.645Z,100858.63
2023-06-17T19:59:05.357Z,100856.91
2023-06-17T20:01:51.561Z,100855.22
2023-06-17T20:04:36.771Z,100857.91
2023-06-17T20:07:22.196Z,100844.88
2023-06-17T20:10:07.975Z,100847.56
2023-06-17T20:12:58.826Z,100847.59
2023-06-17T20:15:44.542Z,100859.88
2023-06-17T20:18:29.836Z,100864.28
2023-06-17T20:21:17.123Z,100859.91
2023-06-17T20:24:02.551Z,100842.59
2023-06-17T20:26:47.837Z,100853.22
2023-06-17T20:29:35.276Z,100856.69
2023-06-17T20:32:21.071Z,100857.53
2023-06-17T20:35:07.158Z,100862.72
2023-06-17T20:37:53.131Z,100867.97
2023-06-17T20:40:38.814Z,100866.16
2023-06-17T20:43:24.076Z,100871.44
2023-06-17T20:46:09.692Z,100874.97
2023-06-17T20:48:54.970Z,100874.97
2023-06-17T20:51:40.670Z,100867.06
2023-06-17T20:54:27.526Z,100875.84
2023-06-17T20:57:13.102Z,100879.28
2023-06-17T20:59:58.526Z,100883.66
2023-06-17T21:02:43.879Z,100881.84
2023-06-17T21:05:29.553Z,100881.00
2023-06-17T21:08:15.077Z,100886.19
2023-06-17T21:11:00.383Z,100892.31
2023-06-17T21:13:45.722Z,100886.16
2023-06-17T21:16:31.396Z,100886.13
2023-06-17T21:19:16.801Z,100881.75
2023-06-17T21:22:02.212Z,100878.22
2023-06-17T21:24:47.787Z,100874.66
2023-06-17T21:27:33.161Z,100872.88
2023-06-17T21:30:18.595Z,100871.06
2023-06-17T21:33:04.244Z,100878.94
2023-06-17T21:35:50.171Z,100870.16
2023-06-17T21:38:35.762Z,100863.97
2023-06-17T21:41:21.435Z,100864.91
2023-06-17T21:44:06.864Z,100860.44
2023-06-17T21:46:52.347Z,100863.09
2023-06-17T21:49:37.779Z,100865.72
2023-06-17T21:52:23.134Z,100859.59
2023-06-17T21:55:09.198Z,100863.13
2023-06-17T21:57:54.585Z,100857.00
2023-06-17T22:00:40.688Z,100863.97
2023-06-17T22:03:27.009Z,100859.66
2023-06-17T22:06:12.799Z,100844.81
2023-06-17T22:08:58.643Z,100852.75
2023-06-17T22:11:44.111Z,100852.84
2023-06-17T22:14:40.138Z,100858.19
2023-06-17T22:17:26.958Z,100858.31
2023-06-17T22:20:12.751Z,100857.53
2023-06-17T22:22:58.246Z,100859.31
2023-06-17T22:25:44.248Z,100860.22
2023-06-17T22:28:30.092Z,100858.59
2023-06-17T22:31:16.193Z,100863.13
2023-06-17T22:34:01.559Z,100863.13
2023-06-17T22:36:46.930Z,100867.47
2023-06-17T22:39:33.281Z,100868.31
2023-06-17T22:42:18.701Z,100860.38
2023-06-17T22:45:04.335Z,100859.47
2023-06-17T22:47:49.978Z,100863.84
2023-06-17T22:50:35.673Z,100858.59
2023-06-17T22:53:21.014Z,100850.69
2023-06-17T22:56:06.612Z,100853.31
2023-06-17T22:58:52.115Z,100852.47
2023-06-17T23:01:37.346Z,100855.19
2023-06-17T23:04:22.624Z,100854.38
2023-06-17T23:07:07.963Z,100848.28
2023-06-17T23:09:53.567Z,100851.88
2023-06-17T23:12:38.866Z,100850.09
2023-06-17T23:15:24.219Z,100844.03
2023-06-17T23:18:09.542Z,100842.38
2023-06-17T23:20:55.264Z,100843.31
2023-06-17T23:23:40.615Z,100842.50
2023-06-17T23:26:27.855Z,100837.28
2023-06-17T23:29:13.501Z,100837.31
2023-06-17T23:31:58.987Z,100839.03
2023-06-17T23:34:44.884Z,100850.47
2023-06-17T23:37:30.350Z,100850.41
2023-06-17T23:40:16.018Z,100839.91
2023-06-17T23:43:01.283Z,100839.88
2023-06-17T23:45:46.742Z,100836.34
2023-06-17T23:48:32.348Z,100831.97
2023-06-17T23:51:18.389Z,100832.03
2023-06-17T23:54:03.979Z,100839.16
2023-06-17T23:56:49.680Z,100826.16
2023-06-17T23:59:35.132Z,100824.44
